createdAt,value
2022-08-09T00:01:10.665Z,1.90
2022-08-09T00:04:00.719Z,1.90
2022-08-09T00:06:28.799Z,1.97
2022-08-09T00:08:58.760Z,2.40
2022-08-09T00:11:27.758Z,2.10
2022-08-09T00:14:17.288Z,2.07
2022-08-09T00:16:49.059Z,1.97
2022-08-09T00:19:18.390Z,2.03
2022-08-09T00:21:55.959Z,2.20
2022-08-09T00:24:24.350Z,2.10
2022-08-09T00:26:51.200Z,2.30
2022-08-09T00:29:39.570Z,2.07
2022-08-09T00:32:06.333Z,2.20
2022-08-09T00:34:33.644Z,2.20
2022-08-09T00:37:00.601Z,1.83
2022-08-09T00:40:12.161Z,1.97
2022-08-09T00:44:19.181Z,2.63
2022-08-09T00:45:03.594Z,2.33
2022-08-09T00:47:41.980Z,2.53
2022-08-09T00:50:14.593Z,2.60
2022-08-09T00:52:42.235Z,2.60
2022-08-09T00:55:16.643Z,2.30
2022-08-09T00:57:53.048Z,2.07
2022-08-09T01:00:27.218Z,2.40
2022-08-09T01:02:59.663Z,2.37
2022-08-09T01:05:51.027Z,1.93
2022-08-09T01:08:53.386Z,2.40
2022-08-09T01:11:55.455Z,2.13
2022-08-09T01:14:39.767Z,2.00
2022-08-09T01:17:18.010Z,2.03
2022-08-09T01:20:08.106Z,2.57
2022-08-09T01:22:54.802Z,2.10
2022-08-09T01:25:37.490Z,1.93
2022-08-09T01:28:10.663Z,2.30
2022-08-09T01:30:52.194Z,1.93
2022-08-09T01:33:23.842Z,2.23
2022-08-09T01:35:54.917Z,2.50
2022-08-09T01:38:26.289Z,2.27
2022-08-09T01:41:05.465Z,2.03
2022-08-09T01:43:50.639Z,2.37
2022-08-09T01:46:29.822Z,2.10
2022-08-09T01:49:12.787Z,2.10
2022-08-09T01:51:53.611Z,1.83
2022-08-09T01:54:25.653Z,2.40
2022-08-09T01:56:57.252Z,2.00
2022-08-09T01:59:24.304Z,2.30
2022-08-09T02:01:58.548Z,2.20
2022-08-09T02:04:29.611Z,2.90
2022-08-09T02:07:15.516Z,2.90
2022-08-09T02:10:06.491Z,1.90
2022-08-09T02:12:35.313Z,2.33
2022-08-09T02:15:06.211Z,2.50
2022-08-09T02:18:10.212Z,2.53
2022-08-09T02:20:25.311Z,2.30
2022-08-09T02:23:13.034Z,2.80
2022-08-09T02:25:52.441Z,3.20
2022-08-09T02:28:47.929Z,2.53
2022-08-09T02:31:21.970Z,2.20
2022-08-09T02:34:07.298Z,1.90
2022-08-09T02:36:43.256Z,2.90
2022-08-09T02:39:19.959Z,1.90
2022-08-09T02:42:05.597Z,2.67
2022-08-09T02:44:40.236Z,2.20
2022-08-09T02:47:11.253Z,2.40
2022-08-09T02:49:47.928Z,2.47
2022-08-09T02:52:35.371Z,2.10
2022-08-09T02:55:20.256Z,2.13
2022-08-09T02:58:00.573Z,2.60
2022-08-09T03:00:47.982Z,1.97
2022-08-09T03:04:12.296Z,2.73
2022-08-09T03:06:15.312Z,1.97
2022-08-09T03:08:45.286Z,2.53
2022-08-09T03:11:29.425Z,3.30
2022-08-09T03:14:06.687Z,2.00
2022-08-09T03:16:37.371Z,2.77
2022-08-09T03:19:14.314Z,2.43
2022-08-09T03:21:56.942Z,2.60
2022-08-09T03:24:31.253Z,2.40
2022-08-09T03:27:09.808Z,2.13
2022-08-09T03:29:57.001Z,2.50
2022-08-09T03:32:27.568Z,2.33
2022-08-09T03:34:55.920Z,2.00
2022-08-09T03:37:54.294Z,2.40
2022-08-09T03:40:13.038Z,2.90
2022-08-09T03:42:43.046Z,2.70
2022-08-09T03:45:10.851Z,2.30
2022-08-09T03:47:41.915Z,2.47
2022-08-09T03:50:10.965Z,2.77
2022-08-09T03:52:40.483Z,2.27
2022-08-09T03:55:10.583Z,2.67
2022-08-09T03:57:44.617Z,2.43
2022-08-09T04:00:24.857Z,2.70
2022-08-09T04:02:55.106Z,2.07
2022-08-09T04:05:27.575Z,2.70
2022-08-09T04:07:57.269Z,3.20
2022-08-09T04:10:29.296Z,2.60
2022-08-09T04:13:04.121Z,2.60
2022-08-09T04:16:17.359Z,2.67
2022-08-09T04:18:19.308Z,2.77
2022-08-09T04:20:50.584Z,2.60
2022-08-09T04:23:23.123Z,3.00
2022-08-09T04:25:53.112Z,2.77
2022-08-09T04:28:30.827Z,2.60
2022-08-09T04:31:07.949Z,2.40
2022-08-09T04:33:52.281Z,3.00
2022-08-09T04:36:23.372Z,2.57
2022-08-09T04:38:50.923Z,2.90
2022-08-09T04:41:19.110Z,2.37
2022-08-09T04:44:05.705Z,2.80
2022-08-09T04:46:56.785Z,2.97
2022-08-09T04:49:22.297Z,2.77
2022-08-09T04:51:57.263Z,3.03
2022-08-09T04:54:23.954Z,2.43
2022-08-09T04:56:50.835Z,2.80
2022-08-09T04:59:17.538Z,2.50
2022-08-09T05:01:48.670Z,2.80
2022-08-09T05:04:15.445Z,2.53
2022-08-09T05:06:44.186Z,2.80
2022-08-09T05:09:10.967Z,2.90
2022-08-09T05:11:39.674Z,2.70
2022-08-09T05:14:10.185Z,3.40
2022-08-09T05:16:43.802Z,2.70
2022-08-09T05:19:38.400Z,2.67
2022-08-09T05:22:36.186Z,2.90
2022-08-09T05:25:01.110Z,2.50
2022-08-09T05:27:30.244Z,2.80
2022-08-09T05:29:57.882Z,3.07
2022-08-09T05:32:26.318Z,2.53
2022-08-09T05:34:57.032Z,2.63
2022-08-09T05:37:23.854Z,3.80
2022-08-09T05:39:52.394Z,2.77
2022-08-09T05:42:21.859Z,3.17
2022-08-09T05:44:55.507Z,2.87
2022-08-09T05:47:24.349Z,3.10
2022-08-09T05:50:30.611Z,3.20
2022-08-09T05:52:42.035Z,2.83
2022-08-09T05:55:18.194Z,3.37
2022-08-09T05:57:57.183Z,2.63
2022-08-09T06:00:26.640Z,2.90
2022-08-09T06:03:00.217Z,3.07
2022-08-09T06:05:50.011Z,3.83
2022-08-09T06:08:19.651Z,3.27
2022-08-09T06:10:55.418Z,3.50
2022-08-09T06:13:22.768Z,3.07
2022-08-09T06:15:51.058Z,3.43
2022-08-09T06:18:25.481Z,3.10
2022-08-09T06:20:57.822Z,2.90
2022-08-09T06:23:58.514Z,3.30
2022-08-09T06:26:14.129Z,2.77
2022-08-09T06:28:43.437Z,3.33
2022-08-09T06:31:10.472Z,3.30
2022-08-09T06:33:41.577Z,3.20
2022-08-09T06:36:09.274Z,3.47
2022-08-09T06:38:37.685Z,2.37
2022-08-09T06:41:09.418Z,2.83
2022-08-09T06:43:46.460Z,2.60
2022-08-09T06:46:39.500Z,2.77
2022-08-09T06:49:00.503Z,2.50
2022-08-09T06:51:27.977Z,2.67
2022-08-09T06:53:55.513Z,2.63
2022-08-09T06:56:30.982Z,2.67
2022-08-09T07:00:49.541Z,2.50
2022-08-09T07:01:54.122Z,2.37
2022-08-09T07:04:25.059Z,2.90
2022-08-09T07:06:59.945Z,2.50
2022-08-09T07:09:55.985Z,2.87
2022-08-09T07:12:17.847Z,2.27
2022-08-09T07:14:50.708Z,2.10
2022-08-09T07:17:21.902Z,1.93
2022-08-09T07:19:50.842Z,2.40
2022-08-09T07:22:18.707Z,2.30
2022-08-09T07:25:05.582Z,2.80
2022-08-09T07:27:43.167Z,2.40
2022-08-09T07:30:21.754Z,2.70
2022-08-09T07:32:52.090Z,1.97
2022-08-09T07:35:19.372Z,2.10
2022-08-09T07:37:46.311Z,2.57
2022-08-09T07:40:18.627Z,2.70
2022-08-09T07:42:56.280Z,2.23
2022-08-09T07:45:40.001Z,2.57
2022-08-09T07:48:28.878Z,2.70
2022-08-09T07:51:09.158Z,2.97
2022-08-09T07:54:05.278Z,2.33
2022-08-09T07:56:33.570Z,2.60
2022-08-09T07:59:00.266Z,2.33
2022-08-09T08:01:33.992Z,2.33
2022-08-09T08:04:02.499Z,2.20
2022-08-09T08:06:31.980Z,2.13
2022-08-09T08:09:04.418Z,2.23
2022-08-09T08:12:24.746Z,2.10
2022-08-09T08:14:18.848Z,2.03
2022-08-09T08:17:00.988Z,2.30
2022-08-09T08:19:34.863Z,2.40
2022-08-09T08:22:02.176Z,2.33
2022-08-09T08:24:34.304Z,2.60
2022-08-09T08:27:16.847Z,2.13
2022-08-09T08:29:48.573Z,2.30
2022-08-09T08:32:18.981Z,2.33
2022-08-09T08:34:58.531Z,2.50
2022-08-09T08:37:41.373Z,2.87
2022-08-09T08:40:13.943Z,2.43
2022-08-09T08:42:47.389Z,2.97
2022-08-09T08:45:16.454Z,2.40
2022-08-09T08:47:45.645Z,2.23
2022-08-09T08:50:15.688Z,2.43
2022-08-09T08:52:59.588Z,2.40
2022-08-09T08:55:27.552Z,2.40
2022-08-09T08:57:56.595Z,2.20
2022-08-09T09:00:29.819Z,2.20
2022-08-09T09:03:11.605Z,2.57
2022-08-09T09:06:00.732Z,2.60
2022-08-09T09:08:32.091Z,2.07
2022-08-09T09:11:05.898Z,2.40
2022-08-09T09:13:54.897Z,2.37
2022-08-09T09:16:30.432Z,2.17
2022-08-09T09:22:13.851Z,3.27
2022-08-09T09:24:59.119Z,2.47
2022-08-09T09:28:07.012Z,2.53
2022-08-09T09:30:41.262Z,2.07
2022-08-09T09:33:15.887Z,2.63
2022-08-09T09:36:11.636Z,2.47
2022-08-09T09:38:52.352Z,3.28
2022-08-09T09:41:33.017Z,2.67
2022-08-09T09:44:10.756Z,2.60
2022-08-09T09:46:52.053Z,2.53
2022-08-09T09:49:31.863Z,2.25
2022-08-09T09:52:33.669Z,2.50
2022-08-09T09:55:28.808Z,2.80
2022-08-09T09:58:01.455Z,2.45
2022-08-09T10:00:31.288Z,2.20
2022-08-09T10:02:59.703Z,2.38
2022-08-09T10:05:27.060Z,2.42
2022-08-09T10:08:27.940Z,2.63
2022-08-09T10:10:55.743Z,2.20
2022-08-09T10:13:24.695Z,2.47
2022-08-09T10:16:57.883Z,2.40
2022-08-09T10:18:59.942Z,1.92
2022-08-09T10:21:27.246Z,2.45
2022-08-09T10:23:55.711Z,2.00
2022-08-09T10:26:24.707Z,2.40
2022-08-09T10:29:34.825Z,2.45
2022-08-09T10:32:35.561Z,2.38
2022-08-09T10:34:34.004Z,2.63
2022-08-09T10:37:02.989Z,1.92
2022-08-09T10:39:40.549Z,2.30
2022-08-09T10:42:16.026Z,2.22
2022-08-09T10:44:54.414Z,2.50
2022-08-09T10:48:13.267Z,2.00
2022-08-09T10:51:02.752Z,3.17
2022-08-09T10:54:16.658Z,2.00
2022-08-09T10:56:43.737Z,2.33
2022-08-09T10:59:31.373Z,2.22
2022-08-09T11:03:15.056Z,2.28
2022-08-09T11:05:24.980Z,2.22
2022-08-09T11:07:59.216Z,1.70
2022-08-09T11:10:53.224Z,2.10
2022-08-09T11:13:53.729Z,2.28
2022-08-09T11:16:37.975Z,2.43
2022-08-09T11:19:09.578Z,2.20
2022-08-09T11:22:05.182Z,1.80
2022-08-09T11:25:05.499Z,2.08
2022-08-09T11:28:03.919Z,2.30
2022-08-09T11:30:32.500Z,2.08
2022-08-09T11:33:05.908Z,1.90
2022-08-09T11:35:49.671Z,2.30
2022-08-09T11:38:33.247Z,2.30
2022-08-09T11:41:16.386Z,2.50
2022-08-09T11:43:49.565Z,1.93
2022-08-09T11:46:26.811Z,2.10
2022-08-09T11:49:01.067Z,1.80
2022-08-09T11:53:02.252Z,2.17
2022-08-09T11:55:35.011Z,2.13
2022-08-09T11:58:15.118Z,2.17
2022-08-09T12:00:56.859Z,2.27
2022-08-09T12:03:55.171Z,1.93
2022-08-09T12:06:16.526Z,2.40
2022-08-09T12:08:53.189Z,2.07
2022-08-09T12:11:24.437Z,2.23
2022-08-09T12:14:08.474Z,1.93
2022-08-09T12:16:41.567Z,1.77
2022-08-09T12:19:12.939Z,2.43
2022-08-09T12:21:48.375Z,1.70
2022-08-09T12:24:24.008Z,2.10
2022-08-09T12:29:14.243Z,1.73
2022-08-09T12:30:01.771Z,2.20
2022-08-09T12:32:41.295Z,2.10
2022-08-09T12:35:10.863Z,2.33
2022-08-09T12:37:50.732Z,2.07
2022-08-09T12:40:21.453Z,2.10
2022-08-09T12:42:51.836Z,2.10
2022-08-09T12:45:34.178Z,2.20
2022-08-09T12:48:19.804Z,2.07
2022-08-09T12:50:58.330Z,1.67
2022-08-09T12:53:44.915Z,2.03
2022-08-09T12:56:43.409Z,2.30
2022-08-09T12:59:14.279Z,2.03
2022-08-09T13:01:48.659Z,2.42
2022-08-09T13:04:36.687Z,2.07
2022-08-09T13:07:19.807Z,1.88
2022-08-09T13:10:04.589Z,2.10
2022-08-09T13:12:32.282Z,2.40
2022-08-09T13:15:09.740Z,2.22
2022-08-09T13:18:02.554Z,1.75
2022-08-09T13:21:03.753Z,1.95
2022-08-09T13:24:16.694Z,2.08
2022-08-09T13:26:37.629Z,1.77
2022-08-09T13:29:09.053Z,2.20
2022-08-09T13:32:15.195Z,2.28
2022-08-09T13:34:44.745Z,1.98
2022-08-09T13:37:15.000Z,1.85
2022-08-09T13:41:45.686Z,2.53
2022-08-09T13:42:49.782Z,2.15
2022-08-09T13:45:17.203Z,1.83
2022-08-09T13:47:51.833Z,1.67
2022-08-09T13:50:30.712Z,2.28
2022-08-09T13:52:58.071Z,1.77
2022-08-09T13:55:24.791Z,2.38
2022-08-09T13:57:59.345Z,1.63
2022-08-09T14:00:29.271Z,1.85
2022-08-09T14:03:17.108Z,1.60
2022-08-09T14:05:59.123Z,1.70
2022-08-09T14:08:30.450Z,1.83
2022-08-09T14:10:59.540Z,1.52
2022-08-09T14:14:24.264Z,1.70
2022-08-09T14:16:18.750Z,1.80
2022-08-09T14:18:49.603Z,1.60
2022-08-09T14:21:23.248Z,1.60
2022-08-09T14:23:56.591Z,1.63
2022-08-09T14:26:32.027Z,1.70
2022-08-09T14:29:01.413Z,1.33
2022-08-09T14:31:36.062Z,2.05
2022-08-09T14:34:17.632Z,1.92
2022-08-09T14:36:55.730Z,1.90
2022-08-09T14:39:47.134Z,1.75
2022-08-09T14:42:09.323Z,1.70
2022-08-09T14:44:48.362Z,2.17
2022-08-09T14:47:42.838Z,2.08
2022-08-09T14:50:03.378Z,1.73
2022-08-09T14:52:30.337Z,1.60
2022-08-09T14:54:57.127Z,1.30
2022-08-09T14:57:32.134Z,1.55
2022-08-09T15:00:11.530Z,1.50
2022-08-09T15:02:38.777Z,1.90
2022-08-09T15:05:07.131Z,1.23
2022-08-09T15:07:35.518Z,1.27
2022-08-09T15:10:10.377Z,1.42
2022-08-09T15:12:40.689Z,1.50
2022-08-09T15:15:13.214Z,1.55
2022-08-09T15:17:42.192Z,1.88
2022-08-09T15:20:15.257Z,1.60
2022-08-09T15:22:47.112Z,1.50
2022-08-09T15:28:02.257Z,1.77
2022-08-09T15:30:55.710Z,1.40
2022-08-09T15:33:25.072Z,1.73
2022-08-09T15:36:05.842Z,1.60
2022-08-09T15:38:33.826Z,1.95
2022-08-09T15:41:00.821Z,1.73
2022-08-09T15:43:39.111Z,2.20
2022-08-09T15:46:18.781Z,1.58
2022-08-09T15:49:20.879Z,1.88
2022-08-09T15:52:02.207Z,1.80
2022-08-09T15:54:38.213Z,1.60
2022-08-09T16:08:15.165Z,2.05
2022-08-09T16:10:59.059Z,2.00
2022-08-09T16:14:03.717Z,1.88
2022-08-09T16:16:17.308Z,1.88
2022-08-09T16:18:45.687Z,2.03
2022-08-09T16:21:16.804Z,1.90
2022-08-09T16:23:50.825Z,1.77
2022-08-09T16:26:35.063Z,1.47
2022-08-09T16:29:14.145Z,1.90
2022-08-09T16:32:20.132Z,1.53
2022-08-09T16:34:53.518Z,1.70
2022-08-09T16:37:55.830Z,1.57
2022-08-09T16:40:10.125Z,2.40
2022-08-09T16:42:37.686Z,2.00
2022-08-09T16:45:06.183Z,1.90
2022-08-09T16:48:38.472Z,1.80
2022-08-09T16:50:31.374Z,1.70
2022-08-09T16:53:01.110Z,1.77
2022-08-09T16:55:44.228Z,1.77
2022-08-09T16:58:16.833Z,1.70
2022-08-09T17:00:46.600Z,1.95
2022-08-09T17:03:22.627Z,1.77
2022-08-09T17:06:07.196Z,2.00
2022-08-09T17:08:46.845Z,2.00
2022-08-09T17:11:41.104Z,2.00
2022-08-09T17:14:26.215Z,1.60
2022-08-09T17:17:01.035Z,1.60
2022-08-09T17:20:12.683Z,2.70
2022-08-09T17:22:25.183Z,2.30
2022-08-09T17:25:03.694Z,2.57
2022-08-09T17:27:33.359Z,2.03
2022-08-09T17:30:06.561Z,2.50
2022-08-09T17:32:38.344Z,2.30
2022-08-09T17:35:12.233Z,2.10
2022-08-09T17:38:12.947Z,2.00
2022-08-09T17:40:33.272Z,2.20
2022-08-09T17:43:32.819Z,2.50
2022-08-09T17:46:03.389Z,2.03
2022-08-09T17:48:31.858Z,2.30
2022-08-09T17:50:59.382Z,2.40
2022-08-09T17:53:43.033Z,2.03
2022-08-09T17:56:14.595Z,2.20
2022-08-09T17:58:45.181Z,2.30
2022-08-09T18:01:22.611Z,2.90
2022-08-09T18:03:52.553Z,2.40
2022-08-09T18:06:32.080Z,2.53
2022-08-09T18:09:03.251Z,2.30
2022-08-09T18:12:05.589Z,2.20
2022-08-09T18:14:23.087Z,2.13
2022-08-09T18:16:50.730Z,2.37
2022-08-09T18:20:57.266Z,2.00
2022-08-09T18:22:13.378Z,2.00
2022-08-09T18:24:45.767Z,2.30
2022-08-09T18:27:14.153Z,1.97
2022-08-09T18:30:40.710Z,2.00
2022-08-09T18:32:47.735Z,2.10
2022-08-09T18:35:58.392Z,2.40
2022-08-09T18:38:09.354Z,2.27
2022-08-09T18:40:38.941Z,2.27
2022-08-09T18:43:05.657Z,2.07
2022-08-09T18:46:48.544Z,2.13
2022-08-09T18:48:19.060Z,2.40
2022-08-09T18:50:47.247Z,2.20
2022-08-09T18:53:16.425Z,2.43
2022-08-09T18:55:56.599Z,2.40
2022-08-09T18:58:32.478Z,2.17
2022-08-09T19:01:00.674Z,2.20
2022-08-09T19:03:28.787Z,2.30
2022-08-09T19:06:03.546Z,2.33
2022-08-09T19:08:30.966Z,2.13
2022-08-09T19:10:57.681Z,2.27
2022-08-09T19:13:38.310Z,2.63
2022-08-09T19:16:12.886Z,2.50
2022-08-09T19:18:45.304Z,3.00
2022-08-09T19:21:12.418Z,2.90
2022-08-09T19:24:36.587Z,2.90
2022-08-09T19:26:31.558Z,3.40
2022-08-09T19:29:09.735Z,3.17
2022-08-09T19:31:46.462Z,2.77
2022-08-09T19:34:21.840Z,2.10
2022-08-09T19:36:51.454Z,2.57
2022-08-09T19:39:20.550Z,2.40
2022-08-09T19:41:55.556Z,2.60
2022-08-09T19:44:22.944Z,2.60
2022-08-09T19:46:53.653Z,2.37
2022-08-09T19:50:08.108Z,2.17
2022-08-09T19:52:08.453Z,3.00
2022-08-09T19:54:35.627Z,2.43
2022-08-09T19:57:03.423Z,2.53
2022-08-09T19:59:58.270Z,2.63
2022-08-09T20:04:12.548Z,2.63
2022-08-09T20:05:10.267Z,3.10
2022-08-09T20:07:58.762Z,2.13
2022-08-09T20:10:34.280Z,2.30
2022-08-09T20:13:02.868Z,2.87
2022-08-09T20:16:38.604Z,2.60
2022-08-09T20:18:18.764Z,2.93
2022-08-09T20:20:47.108Z,2.57
2022-08-09T20:23:18.665Z,2.50
2022-08-09T20:25:52.335Z,2.67
2022-08-09T20:28:24.301Z,2.77
2022-08-09T20:30:55.166Z,2.70
2022-08-09T20:33:22.167Z,2.63
2022-08-09T20:35:51.655Z,2.93
2022-08-09T20:38:30.877Z,2.80
2022-08-09T20:41:06.455Z,3.27
2022-08-09T20:43:33.192Z,2.97
2022-08-09T20:46:33.470Z,2.93
2022-08-09T20:48:48.178Z,3.03
2022-08-09T20:51:19.316Z,2.40
2022-08-09T20:53:46.595Z,3.17
2022-08-09T20:56:19.936Z,3.13
2022-08-09T20:58:54.676Z,2.70
2022-08-09T21:01:34.908Z,2.60
2022-08-09T21:05:56.615Z,2.50
2022-08-09T21:07:10.937Z,3.17
2022-08-09T21:09:45.624Z,2.90
2022-08-09T21:12:18.921Z,2.90
2022-08-09T21:14:46.186Z,3.07
2022-08-09T21:18:29.567Z,2.47
2022-08-09T21:20:17.400Z,2.40
2022-08-09T21:22:52.477Z,3.10
2022-08-09T21:25:39.838Z,2.57
2022-08-09T21:28:12.239Z,2.67
2022-08-09T21:30:43.052Z,2.70
2022-08-09T21:33:10.233Z,2.37
2022-08-09T21:35:40.833Z,2.67
2022-08-09T21:38:21.070Z,2.37
2022-08-09T21:40:59.180Z,2.80
2022-08-09T21:43:58.250Z,2.53
2022-08-09T21:46:13.664Z,2.93
2022-08-09T21:48:42.835Z,2.30
2022-08-09T21:51:18.131Z,3.30
2022-08-09T21:53:55.138Z,2.10
2022-08-09T21:56:43.345Z,2.77
2022-08-09T21:59:09.413Z,2.33
2022-08-09T22:01:59.361Z,2.27
2022-08-09T22:04:55.085Z,2.10
2022-08-09T22:07:10.633Z,2.80
2022-08-09T22:09:43.434Z,2.83
2022-08-09T22:12:18.463Z,2.57
2022-08-09T22:14:46.126Z,2.83
2022-08-09T22:17:13.273Z,2.60
2022-08-09T22:19:59.862Z,2.47
2022-08-09T22:22:29.042Z,3.20
2022-08-09T22:26:08.247Z,2.93
2022-08-09T22:27:42.618Z,2.67
2022-08-09T22:30:10.101Z,2.53
2022-08-09T22:32:37.430Z,2.67
2022-08-09T22:36:00.794Z,2.60
2022-08-09T22:38:06.956Z,2.27
2022-08-09T22:40:35.306Z,2.80
2022-08-09T22:43:16.120Z,2.97
2022-08-09T22:48:10.861Z,2.93
2022-08-09T22:48:36.791Z,2.60
2022-08-09T22:51:10.292Z,2.73
2022-08-09T22:53:44.458Z,2.83
2022-08-09T22:56:32.791Z,2.77
2022-08-09T22:59:05.458Z,3.23
2022-08-09T23:01:33.070Z,2.73
2022-08-09T23:04:03.973Z,2.80
2022-08-09T23:06:51.482Z,3.00
2022-08-09T23:09:18.664Z,2.80
2022-08-09T23:11:45.419Z,2.97
2022-08-09T23:14:17.205Z,3.20
2022-08-09T23:16:44.479Z,3.67
2022-08-09T23:19:11.186Z,3.40
2022-08-09T23:21:38.020Z,2.90
2022-08-09T23:24:07.321Z,3.70
2022-08-09T23:26:38.914Z,3.00
2022-08-09T23:29:07.294Z,2.97
2022-08-09T23:31:34.002Z,2.37
2022-08-09T23:34:01.041Z,3.47
2022-08-09T23:36:30.373Z,3.20
2022-08-09T23:38:57.197Z,2.80
2022-08-09T23:41:28.271Z,2.67
2022-08-09T23:44:00.666Z,2.57
2022-08-09T23:46:28.757Z,2.87
2022-08-09T23:48:56.030Z,2.80
2022-08-09T23:51:22.830Z,3.00
2022-08-09T23:53:52.367Z,2.57
2022-08-09T23:56:21.858Z,3.50
2022-08-09T23:59:06.427Z,3.23
